createdAt,value
2019-05-28T00:00:02.439Z,100381.75
2019-05-28T00:03:05.961Z,100379.29
2019-05-28T00:06:13.168Z,100381.00
2019-05-28T00:09:19.804Z,100377.67
2019-05-28T00:12:26.100Z,100376.31
2019-05-28T00:15:32.504Z,100384.22
2019-05-28T00:18:39.000Z,100383.66
2019-05-28T00:21:46.437Z,100375.70
2019-05-28T00:24:52.927Z,100374.42
2019-05-28T00:27:59.457Z,100370.42
2019-05-28T00:31:05.943Z,100368.58
2019-05-28T00:34:13.468Z,100366.87
2019-05-28T00:37:19.806Z,100369.79
2019-05-28T00:40:26.153Z,100368.14
2019-05-28T00:43:32.835Z,100362.63
2019-05-28T00:46:39.602Z,100361.97
2019-05-28T00:49:49.493Z,100361.00
2019-05-28T00:52:54.117Z,100350.47
2019-05-28T00:56:00.827Z,100360.48
2019-05-28T00:59:07.246Z,100358.33
2019-05-28T01:02:13.597Z,100360.97
2019-05-28T01:05:20.051Z,100348.31
2019-05-28T01:08:26.779Z,100355.33
2019-05-28T01:11:33.234Z,100364.98
2019-05-28T01:14:39.567Z,100360.77
2019-05-28T01:17:46.015Z,100363.06
2019-05-28T01:20:52.406Z,100366.28
2019-05-28T01:23:58.827Z,100362.67
2019-05-28T01:27:05.151Z,100366.45
2019-05-28T01:30:11.632Z,100349.74
2019-05-28T01:33:18.010Z,100357.55
2019-05-28T01:36:24.384Z,100360.59
2019-05-28T01:39:30.764Z,100342.45
2019-05-28T01:42:37.247Z,100350.62
2019-05-28T01:45:43.858Z,100344.85
2019-05-28T01:48:50.294Z,100343.64
2019-05-28T01:51:56.594Z,100336.55
2019-05-28T01:55:03.125Z,100351.30
2019-05-28T01:58:09.530Z,100352.27
2019-05-28T02:01:15.960Z,100352.66
2019-05-28T02:04:22.487Z,100353.47
2019-05-28T02:07:31.618Z,100358.47
2019-05-28T02:10:38.215Z,100356.47
2019-05-28T02:13:44.679Z,100372.02
2019-05-28T02:16:51.142Z,100367.53
2019-05-28T02:19:57.554Z,100375.50
2019-05-28T02:23:04.060Z,100367.53
2019-05-28T02:26:10.436Z,100373.62
2019-05-28T02:29:16.495Z,100369.45
2019-05-28T02:32:23.063Z,100367.86
2019-05-28T02:35:29.665Z,100370.02
2019-05-28T02:38:35.951Z,100376.19
2019-05-28T02:41:42.433Z,100374.91
2019-05-28T02:44:49.023Z,100374.55
2019-05-28T02:47:55.737Z,100379.39
2019-05-28T02:51:03.872Z,100373.97
2019-05-28T02:54:10.601Z,100385.20
2019-05-28T02:57:17.494Z,100376.81
2019-05-28T03:00:23.983Z,100380.90
2019-05-28T03:03:31.487Z,100381.86
2019-05-28T03:06:39.283Z,100381.79
2019-05-28T03:09:47.164Z,100372.32
2019-05-28T03:12:53.937Z,100376.36
2019-05-28T03:16:03.010Z,100374.77
2019-05-28T03:19:09.809Z,100388.31
2019-05-28T03:22:17.568Z,100388.92
2019-05-28T03:25:24.960Z,100390.05
2019-05-28T03:28:31.660Z,100389.31
2019-05-28T03:31:38.139Z,100378.09
2019-05-28T03:34:44.501Z,100371.28
2019-05-28T03:37:51.297Z,100378.69
2019-05-28T03:40:57.620Z,100373.84
2019-05-28T03:44:04.277Z,100361.12
2019-05-28T03:47:10.690Z,100361.12
2019-05-28T03:50:17.104Z,100375.98
2019-05-28T03:53:23.564Z,100383.39
2019-05-28T03:56:29.951Z,100384.77
2019-05-28T03:59:36.444Z,100387.48
2019-05-28T04:02:42.936Z,100392.20
2019-05-28T04:05:49.364Z,100393.25
2019-05-28T04:08:55.724Z,100387.79
2019-05-28T04:12:03.034Z,100389.02
2019-05-28T04:15:09.929Z,100385.84
2019-05-28T04:18:16.320Z,100395.22
2019-05-28T04:21:22.761Z,100402.86
2019-05-28T04:24:29.132Z,100397.94
2019-05-28T04:27:35.842Z,100386.19
2019-05-28T04:30:42.536Z,100394.52
2019-05-28T04:33:48.908Z,100397.46
2019-05-28T04:36:55.216Z,100390.92
2019-05-28T04:40:01.740Z,100396.83
2019-05-28T04:43:08.370Z,100396.20
2019-05-28T04:46:14.692Z,100401.34
2019-05-28T04:49:21.310Z,100397.97
2019-05-28T04:52:30.647Z,100400.03
2019-05-28T04:55:36.024Z,100397.64
2019-05-28T04:58:42.467Z,100399.59
2019-05-28T05:01:49.095Z,100401.55
2019-05-28T05:04:55.749Z,100401.55
2019-05-28T05:08:02.192Z,100407.45
2019-05-28T05:11:08.552Z,100430.44
2019-05-28T05:14:15.076Z,100433.25
2019-05-28T05:17:21.637Z,100427.91
2019-05-28T05:20:27.943Z,100436.23
2019-05-28T05:23:34.296Z,100437.86
2019-05-28T05:26:40.769Z,100447.17
2019-05-28T05:29:47.376Z,100438.32
2019-05-28T05:32:53.691Z,100439.04
2019-05-28T05:36:00.062Z,100432.95
2019-05-28T05:39:08.276Z,100442.33
2019-05-28T05:42:15.001Z,100443.51
2019-05-28T05:45:23.588Z,100445.98
2019-05-28T05:48:29.935Z,100435.51
2019-05-28T05:51:36.384Z,100435.51
2019-05-28T05:54:43.138Z,100443.19
2019-05-28T05:57:49.662Z,100429.84
2019-05-28T06:00:56.406Z,100439.84
2019-05-28T06:04:03.430Z,100447.11
2019-05-28T06:07:10.228Z,100449.36
2019-05-28T06:10:16.927Z,100445.62
2019-05-28T06:13:23.267Z,100440.86
2019-05-28T06:16:29.909Z,100448.59
2019-05-28T06:19:36.791Z,100449.41
2019-05-28T06:22:43.571Z,100440.24
2019-05-28T06:25:51.364Z,100441.72
2019-05-28T06:28:57.763Z,100433.63
2019-05-28T06:32:04.183Z,100439.20
2019-05-28T06:35:10.856Z,100437.30
2019-05-28T06:38:17.287Z,100433.45
2019-05-28T06:41:23.755Z,100431.69
2019-05-28T06:44:30.201Z,100440.41
2019-05-28T06:47:36.690Z,100439.93
2019-05-28T06:50:43.124Z,100432.52
2019-05-28T06:53:49.791Z,100443.83
2019-05-28T06:56:56.307Z,100445.62
2019-05-28T07:00:02.760Z,100457.58
2019-05-28T07:03:09.231Z,100454.15
2019-05-28T07:06:16.015Z,100451.80
2019-05-28T07:09:22.585Z,100456.37
2019-05-28T07:12:29.050Z,100456.69
2019-05-28T07:15:35.418Z,100466.11
2019-05-28T07:18:41.836Z,100454.53
2019-05-28T07:21:48.520Z,100461.77
2019-05-28T07:24:54.911Z,100469.94
2019-05-28T07:28:11.003Z,100462.72
2019-05-28T07:31:10.521Z,100456.90
2019-05-28T07:34:30.418Z,100459.56
2019-05-28T07:37:24.950Z,100463.65
2019-05-28T07:40:32.389Z,100469.05
2019-05-28T07:43:39.058Z,100457.28
2019-05-28T07:46:45.556Z,100457.28
2019-05-28T07:49:52.724Z,100458.02
2019-05-28T07:52:59.148Z,100458.17
2019-05-28T07:56:05.540Z,100467.84
2019-05-28T07:59:12.217Z,100463.23
2019-05-28T08:02:18.653Z,100465.23
2019-05-28T08:05:24.943Z,100464.02
2019-05-28T08:08:31.407Z,100460.41
2019-05-28T08:11:39.156Z,100452.88
2019-05-28T08:14:45.609Z,100465.36
2019-05-28T08:17:51.972Z,100461.00
2019-05-28T08:20:58.462Z,100463.73
2019-05-28T08:24:05.256Z,100462.78
2019-05-28T08:27:11.783Z,100465.66
2019-05-28T08:30:18.250Z,100459.89
2019-05-28T08:33:24.639Z,100465.40
2019-05-28T08:36:31.191Z,100466.11
2019-05-28T08:39:37.596Z,100471.40
2019-05-28T08:42:43.979Z,100471.81
2019-05-28T08:45:50.454Z,100473.12
2019-05-28T08:48:57.941Z,100478.25
2019-05-28T08:52:04.422Z,100479.50
2019-05-28T08:55:11.692Z,100485.05
2019-05-28T08:58:18.095Z,100477.53
2019-05-28T09:01:25.024Z,100491.77
2019-05-28T09:04:32.829Z,100483.03
2019-05-28T09:07:39.172Z,100488.98
2019-05-28T09:10:45.576Z,100486.80
2019-05-28T09:13:52.076Z,100483.45
2019-05-28T09:16:58.540Z,100483.45
2019-05-28T09:20:05.504Z,100486.77
2019-05-28T09:23:12.020Z,100479.94
2019-05-28T09:26:19.014Z,100479.94
2019-05-28T09:29:25.464Z,100488.34
2019-05-28T09:32:31.774Z,100489.14
2019-05-28T09:35:46.350Z,100473.14
2019-05-28T09:38:48.556Z,100486.02
2019-05-28T09:41:55.070Z,100483.63
2019-05-28T09:45:01.495Z,100480.53
2019-05-28T09:48:07.950Z,100487.70
2019-05-28T09:51:14.381Z,100484.27
2019-05-28T09:54:20.857Z,100481.25
2019-05-28T09:57:27.652Z,100486.91
2019-05-28T10:00:36.959Z,100485.72
2019-05-28T10:03:43.593Z,100480.44
2019-05-28T10:06:50.064Z,100480.78
2019-05-28T10:09:57.516Z,100478.70
2019-05-28T10:13:05.709Z,100477.45
2019-05-28T10:16:12.147Z,100477.45
2019-05-28T10:19:18.767Z,100482.22
2019-05-28T10:22:25.255Z,100493.12
2019-05-28T10:25:31.800Z,100495.30
2019-05-28T10:28:38.710Z,100495.30
2019-05-28T10:31:45.508Z,100481.29
2019-05-28T10:35:03.301Z,100487.20
2019-05-28T10:38:01.448Z,100486.61
2019-05-28T10:41:07.876Z,100491.45
2019-05-28T10:44:14.401Z,100494.65
2019-05-28T10:47:21.523Z,100490.17
2019-05-28T10:50:28.178Z,100478.35
2019-05-28T10:53:35.174Z,100483.61
2019-05-28T10:56:42.172Z,100470.27
2019-05-28T10:59:48.566Z,100470.27
2019-05-28T11:02:55.072Z,100474.11
2019-05-28T11:06:02.171Z,100474.78
2019-05-28T11:09:09.103Z,100492.16
2019-05-28T11:12:15.514Z,100483.89
2019-05-28T11:15:23.899Z,100485.00
2019-05-28T11:18:30.716Z,100487.45
2019-05-28T11:21:37.530Z,100480.19
2019-05-28T11:24:43.880Z,100488.43
2019-05-28T11:27:50.336Z,100471.91
2019-05-28T11:30:57.046Z,100486.41
2019-05-28T11:34:03.530Z,100481.98
2019-05-28T11:37:10.355Z,100481.84
2019-05-28T11:40:17.506Z,100490.70
2019-05-28T11:43:24.337Z,100492.28
2019-05-28T11:46:30.745Z,100501.77
2019-05-28T11:49:37.161Z,100496.03
2019-05-28T11:52:43.714Z,100485.94
2019-05-28T11:55:50.429Z,100485.94
2019-05-28T11:58:57.400Z,100492.51
2019-05-28T12:02:05.311Z,100503.33
2019-05-28T12:05:14.452Z,100508.57
2019-05-28T12:08:21.354Z,100505.83
2019-05-28T12:11:27.814Z,100514.64
2019-05-28T12:14:34.553Z,100505.81
2019-05-28T12:17:44.754Z,100500.04
2019-05-28T12:20:49.420Z,100498.09
2019-05-28T12:23:55.887Z,100497.72
2019-05-28T12:27:02.768Z,100497.55
2019-05-28T12:30:09.984Z,100504.09
2019-05-28T12:33:16.661Z,100512.86
2019-05-28T12:36:23.193Z,100506.20
2019-05-28T12:39:29.638Z,100514.52
2019-05-28T12:42:36.100Z,100510.88
2019-05-28T12:45:42.453Z,100524.78
2019-05-28T12:48:48.845Z,100528.23
2019-05-28T12:51:55.314Z,100534.33
2019-05-28T12:55:01.860Z,100550.05
2019-05-28T12:58:09.269Z,100548.31
2019-05-28T13:01:15.756Z,100540.22
2019-05-28T13:04:22.177Z,100542.52
2019-05-28T13:07:28.543Z,100543.04
2019-05-28T13:10:35.730Z,100551.74
2019-05-28T13:13:42.131Z,100559.06
2019-05-28T13:16:48.580Z,100552.66
2019-05-28T13:19:54.977Z,100551.55
2019-05-28T13:23:01.419Z,100560.16
2019-05-28T13:26:08.130Z,100560.06
2019-05-28T13:29:14.613Z,100565.86
2019-05-28T13:32:21.109Z,100559.03
2019-05-28T13:35:28.013Z,100563.77
2019-05-28T13:38:34.315Z,100554.71
2019-05-28T13:41:40.753Z,100567.08
2019-05-28T13:44:47.519Z,100563.08
2019-05-28T13:47:53.932Z,100551.84
2019-05-28T13:51:00.399Z,100551.84
2019-05-28T13:54:07.798Z,100556.14
2019-05-28T13:57:14.270Z,100560.92
2019-05-28T14:00:21.942Z,100548.77
2019-05-28T14:03:28.407Z,100552.20
2019-05-28T14:06:34.894Z,100546.63
2019-05-28T14:09:41.291Z,100542.36
2019-05-28T14:12:48.620Z,100541.14
2019-05-28T14:15:56.522Z,100543.62
2019-05-28T14:19:03.243Z,100536.16
2019-05-28T14:22:09.675Z,100536.72
2019-05-28T14:25:17.036Z,100542.52
2019-05-28T14:28:23.670Z,100540.89
2019-05-28T14:31:30.164Z,100532.45
2019-05-28T14:34:36.569Z,100542.65
2019-05-28T14:37:43.556Z,100528.28
2019-05-28T14:40:50.371Z,100543.94
2019-05-28T14:43:56.816Z,100537.91
2019-05-28T14:47:03.221Z,100527.23
2019-05-28T14:50:10.212Z,100533.32
2019-05-28T14:53:16.980Z,100528.48
2019-05-28T14:56:23.353Z,100525.47
2019-05-28T14:59:30.369Z,100521.80
2019-05-28T15:02:36.862Z,100524.00
2019-05-28T15:05:43.344Z,100529.55
2019-05-28T15:08:50.179Z,100513.29
2019-05-28T15:11:56.656Z,100517.30
2019-05-28T15:15:03.416Z,100513.12
2019-05-28T15:18:09.951Z,100510.36
2019-05-28T15:21:16.456Z,100508.49
2019-05-28T15:24:23.007Z,100512.97
2019-05-28T15:27:29.538Z,100509.32
2019-05-28T15:30:36.007Z,100517.95
2019-05-28T15:33:42.468Z,100515.11
2019-05-28T15:36:49.284Z,100503.66
2019-05-28T15:39:57.106Z,100528.19
2019-05-28T15:43:06.659Z,100528.27
2019-05-28T15:46:12.039Z,100542.84
2019-05-28T15:49:18.465Z,100539.53
2019-05-28T15:52:25.060Z,100543.72
2019-05-28T15:55:31.699Z,100535.30
2019-05-28T15:58:38.092Z,100535.30
2019-05-28T16:01:44.546Z,100538.20
2019-05-28T16:04:51.156Z,100544.12
2019-05-28T16:07:57.650Z,100546.27
2019-05-28T16:11:04.095Z,100545.94
2019-05-28T16:14:10.765Z,100558.59
2019-05-28T16:17:17.518Z,100558.59
2019-05-28T16:20:24.274Z,100566.32
2019-05-28T16:23:30.711Z,100565.72
2019-05-28T16:26:37.191Z,100565.59
2019-05-28T16:29:43.744Z,100564.92
2019-05-28T16:32:50.375Z,100559.48
2019-05-28T16:35:56.828Z,100560.62
2019-05-28T16:39:03.347Z,100569.57
2019-05-28T16:42:11.209Z,100548.42
2019-05-28T16:45:18.406Z,100548.42
2019-05-28T16:48:24.898Z,100555.97
2019-05-28T16:51:31.407Z,100558.73
2019-05-28T16:54:37.963Z,100548.17
2019-05-28T16:57:44.446Z,100557.59
2019-05-28T17:00:50.967Z,100556.20
2019-05-28T17:04:00.146Z,100559.48
2019-05-28T17:07:07.364Z,100555.06
2019-05-28T17:10:30.768Z,100550.17
2019-05-28T17:13:22.101Z,100562.11
2019-05-28T17:16:28.491Z,100562.45
2019-05-28T17:19:35.405Z,100561.30
2019-05-28T17:22:43.544Z,100564.86
2019-05-28T17:25:50.375Z,100562.11
2019-05-28T17:28:57.416Z,100562.11
2019-05-28T17:32:06.916Z,100560.49
2019-05-28T17:35:17.910Z,100560.49
2019-05-28T17:38:25.815Z,100574.38
2019-05-28T17:41:33.048Z,100556.47
2019-05-28T17:44:39.737Z,100575.45
2019-05-28T17:47:46.738Z,100577.39
2019-05-28T17:50:53.351Z,100576.61
2019-05-28T17:53:59.745Z,100569.30
2019-05-28T17:57:06.256Z,100572.42
2019-05-28T18:00:13.809Z,100566.63
2019-05-28T18:03:20.252Z,100562.46
2019-05-28T18:06:26.784Z,100568.68
2019-05-28T18:09:33.253Z,100562.56
2019-05-28T18:12:39.952Z,100566.23
2019-05-28T18:15:46.337Z,100564.29
2019-05-28T18:18:52.894Z,100573.95
2019-05-28T18:21:59.525Z,100568.87
2019-05-28T18:25:06.600Z,100564.56
2019-05-28T18:28:13.020Z,100564.56
2019-05-28T18:31:19.464Z,100573.08
2019-05-28T18:34:26.109Z,100574.77
2019-05-28T18:37:32.405Z,100577.02
2019-05-28T18:40:38.949Z,100584.59
2019-05-28T18:43:45.369Z,100584.59
2019-05-28T18:46:52.119Z,100581.05
2019-05-28T18:50:03.187Z,100581.12
2019-05-28T18:53:06.687Z,100582.50
2019-05-28T18:56:17.813Z,100589.57
2019-05-28T18:59:24.607Z,100580.55
2019-05-28T19:02:31.293Z,100577.77
2019-05-28T19:05:37.762Z,100575.34
2019-05-28T19:08:47.255Z,100583.38
2019-05-28T19:11:55.191Z,100570.28
2019-05-28T19:15:01.874Z,100571.25
2019-05-28T19:18:08.348Z,100554.11
2019-05-28T19:21:14.877Z,100563.72
2019-05-28T19:24:23.395Z,100567.73
2019-05-28T19:27:31.165Z,100568.58
2019-05-28T19:30:37.542Z,100574.28
2019-05-28T19:33:44.058Z,100587.13
2019-05-28T19:36:50.991Z,100600.27
2019-05-28T19:39:57.299Z,100589.05
2019-05-28T19:43:03.676Z,100600.75
2019-05-28T19:46:10.210Z,100604.34
2019-05-28T19:49:17.498Z,100599.81
2019-05-28T19:52:23.850Z,100593.64
2019-05-28T19:55:30.236Z,100611.66
2019-05-28T19:58:36.601Z,100605.50
2019-05-28T20:01:43.842Z,100604.25
2019-05-28T20:04:50.403Z,100610.46
2019-05-28T20:07:56.907Z,100617.20
2019-05-28T20:11:03.363Z,100613.52
2019-05-28T20:14:11.204Z,100612.40
2019-05-28T20:17:17.660Z,100597.64
2019-05-28T20:20:24.099Z,100607.39
2019-05-28T20:23:30.512Z,100597.64
2019-05-28T20:26:37.326Z,100605.91
2019-05-28T20:29:46.479Z,100599.96
2019-05-28T20:32:54.959Z,100593.58
2019-05-28T20:36:01.924Z,100575.28
2019-05-28T20:39:10.015Z,100602.05
2019-05-28T20:42:26.967Z,100605.84
2019-05-28T20:45:24.527Z,100609.30
2019-05-28T20:48:31.119Z,100611.80
2019-05-28T20:51:37.973Z,100607.30
2019-05-28T20:54:44.345Z,100608.46
2019-05-28T20:57:51.181Z,100607.47
2019-05-28T21:00:57.913Z,100607.73
2019-05-28T21:04:04.421Z,100609.17
2019-05-28T21:07:11.018Z,100590.79
2019-05-28T21:10:17.436Z,100593.69
2019-05-28T21:13:23.885Z,100599.56
2019-05-28T21:16:30.342Z,100598.78
2019-05-28T21:19:37.899Z,100580.53
2019-05-28T21:22:44.188Z,100580.53
2019-05-28T21:25:52.029Z,100589.87
2019-05-28T21:28:58.837Z,100588.51
2019-05-28T21:32:05.268Z,100582.76
2019-05-28T21:35:11.718Z,100591.94
2019-05-28T21:38:18.136Z,100583.62
2019-05-28T21:41:24.645Z,100592.27
2019-05-28T21:44:31.230Z,100595.96
2019-05-28T21:47:37.977Z,100583.94
2019-05-28T21:50:44.385Z,100588.53
2019-05-28T21:53:51.058Z,100591.75
2019-05-28T21:56:57.404Z,100594.31
2019-05-28T22:00:04.383Z,100601.46
2019-05-28T22:03:12.899Z,100599.19
2019-05-28T22:06:20.087Z,100594.17
2019-05-28T22:09:26.660Z,100600.23
2019-05-28T22:12:34.337Z,100603.29
2019-05-28T22:15:40.984Z,100608.44
2019-05-28T22:18:47.634Z,100616.03
2019-05-28T22:21:54.345Z,100612.85
2019-05-28T22:25:00.912Z,100607.52
2019-05-28T22:28:07.569Z,100616.77
2019-05-28T22:31:15.013Z,100613.30
2019-05-28T22:34:21.775Z,100616.78
2019-05-28T22:37:28.409Z,100618.87
2019-05-28T22:40:35.377Z,100616.69
2019-05-28T22:43:42.047Z,100622.97
2019-05-28T22:46:48.826Z,100614.53
2019-05-28T22:50:12.094Z,100623.52
2019-05-28T22:53:03.965Z,100618.70
2019-05-28T22:56:10.928Z,100619.43
2019-05-28T22:59:17.639Z,100622.48
2019-05-28T23:02:24.121Z,100617.81
2019-05-28T23:05:30.512Z,100624.44
2019-05-28T23:08:37.116Z,100618.64
2019-05-28T23:11:43.956Z,100624.10
2019-05-28T23:14:50.740Z,100627.48
2019-05-28T23:17:57.388Z,100625.69
2019-05-28T23:21:04.749Z,100624.76
2019-05-28T23:24:11.449Z,100624.84
2019-05-28T23:27:17.926Z,100624.24
2019-05-28T23:30:25.464Z,100631.20
2019-05-28T23:33:32.204Z,100640.68
2019-05-28T23:36:38.895Z,100639.64
2019-05-28T23:39:45.241Z,100643.15
2019-05-28T23:42:52.029Z,100642.58
2019-05-28T23:45:58.487Z,100651.94
2019-05-28T23:49:06.029Z,100663.85
2019-05-28T23:52:12.794Z,100663.24
2019-05-28T23:55:19.068Z,100659.08
2019-05-28T23:58:25.790Z,100672.45
